createdAt,value
2023-03-05T00:00:45.152Z,102282.88
2023-03-05T00:03:11.922Z,102283.72
2023-03-05T00:05:38.434Z,102274.28
2023-03-05T00:08:05.021Z,102272.53
2023-03-05T00:10:31.591Z,102275.97
2023-03-05T00:12:58.056Z,102269.97
2023-03-05T00:15:24.491Z,102271.69
2023-03-05T00:17:50.923Z,102265.66
2023-03-05T00:20:17.639Z,102261.38
2023-03-05T00:22:44.066Z,102259.66
2023-03-05T00:25:10.920Z,102263.09
2023-03-05T00:27:37.346Z,102255.38
2023-03-05T00:30:04.055Z,102257.97
2023-03-05T00:32:30.650Z,102255.38
2023-03-05T00:34:57.223Z,102251.06
2023-03-05T00:37:23.763Z,102239.06
2023-03-05T00:39:50.194Z,102245.94
2023-03-05T00:42:16.627Z,102250.22
2023-03-05T00:44:43.135Z,102253.69
2023-03-05T00:47:09.571Z,102241.69
2023-03-05T00:49:35.984Z,102241.69
2023-03-05T00:52:02.446Z,102241.69
2023-03-05T00:54:28.851Z,102241.69
2023-03-05T00:56:55.286Z,102240.81
2023-03-05T00:59:21.694Z,102235.66
2023-03-05T01:01:48.405Z,102232.25
2023-03-05T01:04:14.882Z,102238.28
2023-03-05T01:06:44.705Z,102236.56
2023-03-05T01:09:11.267Z,102232.28
2023-03-05T01:11:37.775Z,102227.13
2023-03-05T01:14:04.266Z,102225.41
2023-03-05T01:16:30.773Z,102216.81
2023-03-05T01:18:57.318Z,102214.22
2023-03-05T01:21:23.942Z,102219.41
2023-03-05T01:23:50.431Z,102215.94
2023-03-05T01:26:16.870Z,102212.53
2023-03-05T01:28:43.367Z,102199.63
2023-03-05T01:31:10.679Z,102197.06
2023-03-05T01:33:37.467Z,102191.06
2023-03-05T01:36:09.005Z,102197.94
2023-03-05T01:38:35.542Z,102193.66
2023-03-05T01:41:02.001Z,102191.09
2023-03-05T01:43:30.311Z,102182.50
2023-03-05T01:46:16.725Z,102178.19
2023-03-05T01:48:47.535Z,102185.06
2023-03-05T01:51:15.049Z,102167.03
2023-03-05T01:53:41.741Z,102171.31
2023-03-05T01:56:09.535Z,102163.59
2023-03-05T01:58:37.227Z,102164.47
2023-03-05T02:01:03.805Z,102163.56
2023-03-05T02:03:30.479Z,102149.00
2023-03-05T02:05:56.941Z,102147.31
2023-03-05T02:08:24.362Z,102142.13
2023-03-05T02:10:58.659Z,102142.16
2023-03-05T02:13:32.618Z,102138.75
2023-03-05T02:16:01.172Z,102139.56
2023-03-05T02:18:28.317Z,102131.00
2023-03-05T02:20:57.737Z,102127.56
2023-03-05T02:23:27.713Z,102121.53
2023-03-05T02:25:54.189Z,102123.28
2023-03-05T02:28:46.897Z,102113.84
2023-03-05T02:31:19.326Z,102116.41
2023-03-05T02:33:46.025Z,102113.81
2023-03-05T02:36:12.837Z,102106.13
2023-03-05T02:38:40.860Z,102106.13
2023-03-05T02:41:07.416Z,102102.69
2023-03-05T02:43:33.845Z,102101.84
2023-03-05T02:46:00.708Z,102099.28
2023-03-05T02:48:27.220Z,102096.69
2023-03-05T02:50:55.101Z,102098.41
2023-03-05T02:53:23.109Z,102091.53
2023-03-05T02:55:50.285Z,102093.28
2023-03-05T02:58:17.425Z,102084.69
2023-03-05T03:00:44.452Z,102076.94
2023-03-05T03:03:10.926Z,102082.09
2023-03-05T03:05:37.519Z,102075.22
2023-03-05T03:08:04.783Z,102074.38
2023-03-05T03:10:31.519Z,102069.22
2023-03-05T03:12:57.936Z,102064.91
2023-03-05T03:15:24.787Z,102060.66
2023-03-05T03:17:51.183Z,102052.06
2023-03-05T03:20:18.594Z,102052.91
2023-03-05T03:22:46.559Z,102047.75
2023-03-05T03:25:21.100Z,102050.34
2023-03-05T03:27:47.594Z,102046.09
2023-03-05T03:30:14.723Z,102040.91
2023-03-05T03:32:41.262Z,102035.81
2023-03-05T03:35:08.156Z,102046.09
2023-03-05T03:37:34.668Z,102043.50
2023-03-05T03:40:01.075Z,102042.66
2023-03-05T03:42:27.618Z,102037.47
2023-03-05T03:44:54.108Z,102037.50
2023-03-05T03:47:20.481Z,102022.03
2023-03-05T03:49:46.909Z,102021.19
2023-03-05T03:52:13.338Z,102021.19
2023-03-05T03:54:39.817Z,102013.47
2023-03-05T03:57:06.428Z,102008.31
2023-03-05T03:59:32.885Z,102011.75
2023-03-05T04:01:59.273Z,102017.75
2023-03-05T04:04:26.421Z,102017.75
2023-03-05T04:06:52.875Z,102015.19
2023-03-05T04:09:19.321Z,102019.47
2023-03-05T04:11:45.720Z,102014.31
2023-03-05T04:14:14.490Z,101997.19
2023-03-05T04:16:40.920Z,102000.63
2023-03-05T04:19:07.373Z,101998.91
2023-03-05T04:21:33.826Z,101998.91
2023-03-05T04:24:00.262Z,101998.91
2023-03-05T04:26:26.829Z,102003.19
2023-03-05T04:28:53.268Z,101989.47
2023-03-05T04:31:20.639Z,101994.63
2023-03-05T04:33:47.577Z,101990.34
2023-03-05T04:36:14.075Z,101985.19
2023-03-05T04:38:40.560Z,101986.91
2023-03-05T04:41:06.934Z,101980.06
2023-03-05T04:43:33.373Z,101986.03
2023-03-05T04:45:59.820Z,101980.91
2023-03-05T04:48:26.299Z,101972.34
2023-03-05T04:50:52.746Z,101969.75
2023-03-05T04:53:19.192Z,101964.63
2023-03-05T04:55:45.733Z,101966.34
2023-03-05T04:58:12.249Z,101963.75
2023-03-05T05:00:38.933Z,101961.19
2023-03-05T05:03:05.425Z,101955.16
2023-03-05T05:05:31.880Z,101958.59
2023-03-05T05:07:58.768Z,101964.63
2023-03-05T05:10:26.333Z,101962.91
2023-03-05T05:12:53.203Z,101954.31
2023-03-05T05:15:19.861Z,101952.59
2023-03-05T05:17:46.482Z,101953.44
2023-03-05T05:20:14.924Z,101943.16
2023-03-05T05:22:41.609Z,101947.44
2023-03-05T05:25:08.623Z,101939.72
2023-03-05T05:27:35.277Z,101940.56
2023-03-05T05:30:02.176Z,101940.56
2023-03-05T05:32:28.725Z,101940.59
2023-03-05T05:34:57.761Z,101933.72
2023-03-05T05:37:25.227Z,101938.06
2023-03-05T05:39:51.697Z,101932.91
2023-03-05T05:42:19.772Z,101930.31
2023-03-05T05:44:47.578Z,101934.59
2023-03-05T05:47:16.083Z,101930.31
2023-03-05T05:49:42.915Z,101923.44
2023-03-05T05:52:09.679Z,101921.75
2023-03-05T05:54:36.218Z,101926.06
2023-03-05T05:57:02.745Z,101928.66
2023-03-05T05:59:29.118Z,101917.50
2023-03-05T06:01:55.648Z,101918.38
2023-03-05T06:04:22.207Z,101920.09
2023-03-05T06:06:48.634Z,101914.09
2023-03-05T06:09:15.113Z,101923.50
2023-03-05T06:11:41.693Z,101917.50
2023-03-05T06:14:09.006Z,101914.88
2023-03-05T06:16:35.494Z,101922.59
2023-03-05T06:19:04.676Z,101912.31
2023-03-05T06:21:33.290Z,101912.31
2023-03-05T06:24:00.439Z,101911.44
2023-03-05T06:26:26.960Z,101915.72
2023-03-05T06:28:53.822Z,101907.16
2023-03-05T06:31:23.461Z,101914.88
2023-03-05T06:33:50.405Z,101907.16
2023-03-05T06:36:19.776Z,101908.00
2023-03-05T06:38:48.374Z,101908.00
2023-03-05T06:41:18.797Z,101914.84
2023-03-05T06:43:46.400Z,101913.13
2023-03-05T06:46:33.253Z,101909.66
2023-03-05T06:49:01.833Z,101917.38
2023-03-05T06:51:34.455Z,101915.72
2023-03-05T06:54:04.285Z,101921.72
2023-03-05T06:56:30.843Z,101911.44
2023-03-05T06:58:57.483Z,101908.88
2023-03-05T07:01:24.262Z,101909.75
2023-03-05T07:03:52.118Z,101905.44
2023-03-05T07:06:19.434Z,101913.16
2023-03-05T07:08:45.922Z,101908.00
2023-03-05T07:11:15.376Z,101913.13
2023-03-05T07:13:43.450Z,101903.69
2023-03-05T07:16:14.079Z,101907.97
2023-03-05T07:18:40.634Z,101901.94
2023-03-05T07:21:08.699Z,101905.34
2023-03-05T07:23:36.214Z,101903.66
2023-03-05T07:26:06.896Z,101904.53
2023-03-05T07:28:34.486Z,101903.69
2023-03-05T07:31:04.037Z,101907.06
2023-03-05T07:33:31.981Z,101911.34
2023-03-05T07:35:58.462Z,101907.03
2023-03-05T07:38:24.967Z,101906.13
2023-03-05T07:40:51.425Z,101912.13
2023-03-05T07:43:17.981Z,101906.13
2023-03-05T07:45:45.606Z,101901.00
2023-03-05T07:48:15.457Z,101899.22
2023-03-05T07:50:42.136Z,101896.66
2023-03-05T07:53:09.091Z,101896.66
2023-03-05T07:55:35.561Z,101897.50
2023-03-05T07:58:01.950Z,101899.22
2023-03-05T08:00:28.375Z,101900.94
2023-03-05T08:02:54.849Z,101898.31
2023-03-05T08:05:21.278Z,101891.41
2023-03-05T08:07:47.665Z,101884.44
2023-03-05T08:10:14.305Z,101882.66
2023-03-05T08:12:40.716Z,101881.75
2023-03-05T08:15:07.847Z,101886.88
2023-03-05T08:17:34.335Z,101882.63
2023-03-05T08:20:05.282Z,101879.19
2023-03-05T08:22:35.031Z,101878.34
2023-03-05T08:25:01.709Z,101886.06
2023-03-05T08:27:28.106Z,101869.69
2023-03-05T08:29:54.584Z,101876.59
2023-03-05T08:32:21.173Z,101868.84
2023-03-05T08:34:47.717Z,101869.66
2023-03-05T08:37:14.115Z,101862.66
2023-03-05T08:39:40.582Z,101861.78
2023-03-05T08:42:09.021Z,101861.66
2023-03-05T08:44:35.648Z,101857.22
2023-03-05T08:47:02.068Z,101858.00
2023-03-05T08:49:28.576Z,101848.47
2023-03-05T08:51:55.049Z,101845.00
2023-03-05T08:54:21.529Z,101850.28
2023-03-05T08:56:49.469Z,101845.97
2023-03-05T08:59:15.946Z,101840.03
2023-03-05T09:01:42.486Z,101836.66
2023-03-05T09:04:09.468Z,101833.06
2023-03-05T09:06:39.287Z,101838.22
2023-03-05T09:09:07.616Z,101836.38
2023-03-05T09:11:36.081Z,101844.16
2023-03-05T09:14:06.745Z,101839.84
2023-03-05T09:16:33.563Z,101832.94
2023-03-05T09:19:00.235Z,101832.88
2023-03-05T09:21:26.709Z,101829.53
2023-03-05T09:23:53.120Z,101828.47
2023-03-05T09:26:20.149Z,101837.06
2023-03-05T09:28:47.633Z,101834.47
2023-03-05T09:31:14.177Z,101826.75
2023-03-05T09:33:41.268Z,101831.00
2023-03-05T09:36:28.654Z,101824.94
2023-03-05T09:38:55.479Z,101822.28
2023-03-05T09:41:46.871Z,101823.94
2023-03-05T09:44:22.342Z,101823.94
2023-03-05T09:46:54.657Z,101823.88
2023-03-05T09:49:50.810Z,101827.16
2023-03-05T09:52:23.215Z,101821.97
2023-03-05T09:54:55.050Z,101824.47
2023-03-05T09:57:39.430Z,101818.41
2023-03-05T10:00:17.236Z,101814.00
2023-03-05T10:02:52.034Z,101813.00
2023-03-05T10:05:47.402Z,101810.31
2023-03-05T10:08:17.936Z,101802.56
2023-03-05T10:10:50.386Z,101801.84
2023-03-05T10:13:24.640Z,101797.47
2023-03-05T10:16:04.899Z,101795.59
2023-03-05T10:18:51.600Z,101795.44
2023-03-05T10:21:30.606Z,101792.00
2023-03-05T10:24:21.367Z,101786.78
2023-03-05T10:26:56.281Z,101788.50
2023-03-05T10:30:10.538Z,101786.72
2023-03-05T10:32:52.072Z,101781.00
2023-03-05T10:35:36.611Z,101767.78
2023-03-05T10:38:22.692Z,101773.53
2023-03-05T10:40:52.976Z,101766.66
2023-03-05T10:43:43.419Z,101765.69
2023-03-05T10:46:18.877Z,101763.66
2023-03-05T10:48:58.607Z,101764.47
2023-03-05T10:51:34.818Z,101760.94
2023-03-05T10:54:15.920Z,101755.84
2023-03-05T10:56:42.420Z,101752.50
2023-03-05T10:59:09.069Z,101746.16
2023-03-05T11:01:37.395Z,101740.44
2023-03-05T11:04:06.606Z,101738.06
2023-03-05T11:06:42.243Z,101733.31
2023-03-05T11:09:22.415Z,101728.78
2023-03-05T11:12:08.530Z,101727.50
2023-03-05T11:14:38.651Z,101723.59
2023-03-05T11:17:34.218Z,101718.72
2023-03-05T11:20:23.371Z,101714.94
2023-03-05T11:23:13.707Z,101719.13
2023-03-05T11:25:52.495Z,101702.94
2023-03-05T11:28:32.228Z,101707.41
2023-03-05T11:31:18.198Z,101696.66
2023-03-05T11:33:57.628Z,101687.91
2023-03-05T11:36:30.476Z,101687.78
2023-03-05T11:39:06.080Z,101685.91
2023-03-05T11:41:40.672Z,101679.78
2023-03-05T11:44:13.926Z,101680.88
2023-03-05T11:46:47.832Z,101677.03
2023-03-05T11:49:24.226Z,101676.34
2023-03-05T11:52:01.972Z,101672.94
2023-03-05T11:54:40.189Z,101667.72
2023-03-05T11:57:06.765Z,101664.38
2023-03-05T11:59:39.626Z,101660.91
2023-03-05T12:02:19.972Z,101654.53
2023-03-05T12:04:48.303Z,101647.91
2023-03-05T12:07:19.850Z,101647.38
2023-03-05T12:09:50.647Z,101645.22
2023-03-05T12:12:48.767Z,101640.66
2023-03-05T12:15:32.161Z,101636.13
2023-03-05T12:18:10.741Z,101629.38
2023-03-05T12:21:09.157Z,101628.78
2023-03-05T12:24:01.427Z,101621.09
2023-03-05T12:26:52.907Z,101613.25
2023-03-05T12:29:42.721Z,101605.19
2023-03-05T12:32:32.490Z,101605.25
2023-03-05T12:35:22.262Z,101596.00
2023-03-05T12:37:51.770Z,101595.25
2023-03-05T12:40:18.411Z,101589.25
2023-03-05T12:42:46.296Z,101586.78
2023-03-05T12:45:14.063Z,101580.22
2023-03-05T12:47:41.168Z,101576.53
2023-03-05T12:50:29.215Z,101575.34
2023-03-05T12:53:19.763Z,101569.28
2023-03-05T12:55:55.694Z,101567.78
2023-03-05T12:58:28.184Z,101561.16
2023-03-05T13:01:15.972Z,101553.38
2023-03-05T13:03:53.162Z,101556.41
2023-03-05T13:06:33.510Z,101552.50
2023-03-05T13:09:16.505Z,101539.41
2023-03-05T13:11:47.226Z,101532.53
2023-03-05T13:14:40.471Z,101531.19
2023-03-05T13:17:34.912Z,101528.75
2023-03-05T13:20:22.153Z,101527.06
2023-03-05T13:22:48.589Z,101521.63
2023-03-05T13:25:20.412Z,101521.22
2023-03-05T13:27:46.925Z,101510.22
2023-03-05T13:30:27.734Z,101520.63
2023-03-05T13:33:02.875Z,101506.19
2023-03-05T13:35:31.186Z,101497.13
2023-03-05T13:37:59.412Z,101494.53
2023-03-05T13:40:31.464Z,101494.78
2023-03-05T13:43:14.719Z,101495.13
2023-03-05T13:45:41.278Z,101487.25
2023-03-05T13:48:07.806Z,101481.88
2023-03-05T13:50:40.342Z,101481.28
2023-03-05T13:53:20.135Z,101477.00
2023-03-05T13:55:48.832Z,101465.38
2023-03-05T13:58:41.185Z,101475.53
2023-03-05T14:01:13.792Z,101473.88
2023-03-05T14:03:40.638Z,101470.34
2023-03-05T14:06:12.539Z,101466.25
2023-03-05T14:08:40.082Z,101467.72
2023-03-05T14:11:17.581Z,101462.72
2023-03-05T14:13:45.622Z,101455.72
2023-03-05T14:16:27.906Z,101451.25
2023-03-05T14:18:55.951Z,101454.63
2023-03-05T14:21:23.156Z,101446.75
2023-03-05T14:23:54.673Z,101443.47
2023-03-05T14:26:28.770Z,101440.03
2023-03-05T14:29:05.165Z,101432.00
2023-03-05T14:31:46.953Z,101428.44
2023-03-05T14:34:31.081Z,101427.00
2023-03-05T14:37:07.057Z,101422.59
2023-03-05T14:39:59.555Z,101424.75
2023-03-05T14:42:26.670Z,101418.13
2023-03-05T14:44:55.662Z,101418.91
2023-03-05T14:47:23.473Z,101411.72
2023-03-05T14:49:49.993Z,101409.50
2023-03-05T14:52:23.843Z,101409.75
2023-03-05T14:54:51.056Z,101405.47
2023-03-05T14:57:23.679Z,101401.19
2023-03-05T14:59:50.495Z,101403.56
2023-03-05T15:02:19.811Z,101393.75
2023-03-05T15:04:46.773Z,101393.78
2023-03-05T15:07:29.100Z,101391.53
2023-03-05T15:09:55.770Z,101388.53
2023-03-05T15:12:24.846Z,101383.25
2023-03-05T15:14:55.810Z,101375.63
2023-03-05T15:17:30.584Z,101377.59
2023-03-05T15:19:57.248Z,101365.63
2023-03-05T15:22:23.655Z,101368.97
2023-03-05T15:24:50.092Z,101370.69
2023-03-05T15:27:16.553Z,101367.31
2023-03-05T15:29:43.026Z,101367.59
2023-03-05T15:32:09.574Z,101362.31
2023-03-05T15:34:36.587Z,101361.53
2023-03-05T15:37:03.877Z,101361.63
2023-03-05T15:39:30.735Z,101355.44
2023-03-05T15:41:57.412Z,101351.28
2023-03-05T15:44:24.094Z,101342.91
2023-03-05T15:46:50.744Z,101343.69
2023-03-05T15:49:17.641Z,101333.31
2023-03-05T15:51:44.075Z,101338.53
2023-03-05T15:54:10.503Z,101332.69
2023-03-05T15:56:37.050Z,101328.44
2023-03-05T15:59:03.926Z,101330.06
2023-03-05T16:01:30.439Z,101330.97
2023-03-05T16:03:56.987Z,101326.84
2023-03-05T16:06:24.531Z,101319.19
2023-03-05T16:08:54.549Z,101322.75
2023-03-05T16:11:21.660Z,101314.25
2023-03-05T16:13:50.553Z,101314.19
2023-03-05T16:16:17.647Z,101305.69
2023-03-05T16:18:46.287Z,101305.75
2023-03-05T16:21:13.926Z,101300.69
2023-03-05T16:23:40.503Z,101298.13
2023-03-05T16:26:08.432Z,101294.84
2023-03-05T16:28:34.913Z,101307.81
2023-03-05T16:31:02.790Z,101288.91
2023-03-05T16:33:29.349Z,101295.94
2023-03-05T16:36:20.780Z,101287.22
2023-03-05T16:38:49.711Z,101291.53
2023-03-05T16:41:17.713Z,101290.72
2023-03-05T16:43:45.119Z,101280.53
2023-03-05T16:46:12.992Z,101278.72
2023-03-05T16:48:39.592Z,101275.28
2023-03-05T16:51:06.996Z,101272.69
2023-03-05T16:53:33.528Z,101269.41
2023-03-05T16:56:04.183Z,101273.91
2023-03-05T16:58:31.676Z,101268.06
2023-03-05T17:00:58.474Z,101267.13
2023-03-05T17:03:24.987Z,101261.97
2023-03-05T17:05:51.820Z,101262.78
2023-03-05T17:08:18.371Z,101260.19
2023-03-05T17:10:45.443Z,101264.41
2023-03-05T17:13:11.936Z,101258.38
2023-03-05T17:15:38.602Z,101260.09
2023-03-05T17:18:05.690Z,101260.94
2023-03-05T17:20:35.467Z,101262.59
2023-03-05T17:23:02.347Z,101254.03
2023-03-05T17:25:29.269Z,101251.63
2023-03-05T17:27:55.738Z,101255.97
2023-03-05T17:30:22.351Z,101250.69
2023-03-05T17:32:52.365Z,101250.56
2023-03-05T17:35:21.329Z,101254.16
2023-03-05T17:37:47.829Z,101248.25
2023-03-05T17:40:15.173Z,101244.94
2023-03-05T17:42:41.610Z,101245.06
2023-03-05T17:45:08.484Z,101243.41
2023-03-05T17:47:35.036Z,101245.19
2023-03-05T17:50:01.607Z,101244.34
2023-03-05T17:52:27.995Z,101240.88
2023-03-05T17:54:54.410Z,101244.28
2023-03-05T17:57:21.852Z,101241.78
2023-03-05T17:59:49.092Z,101245.28
2023-03-05T18:02:15.619Z,101242.78
2023-03-05T18:04:43.880Z,101242.16
2023-03-05T18:07:10.656Z,101250.06
2023-03-05T18:09:37.100Z,101248.44
2023-03-05T18:12:03.688Z,101242.44
2023-03-05T18:14:30.135Z,101239.19
2023-03-05T18:16:58.150Z,101244.59
2023-03-05T18:19:25.128Z,101238.63
2023-03-05T18:21:51.910Z,101236.84
2023-03-05T18:24:18.344Z,101238.47
2023-03-05T18:26:44.803Z,101235.91
2023-03-05T18:29:11.511Z,101235.88
2023-03-05T18:31:37.968Z,101238.44
2023-03-05T18:34:04.369Z,101235.97
2023-03-05T18:36:30.809Z,101229.16
2023-03-05T18:38:57.250Z,101230.88
2023-03-05T18:41:27.676Z,101232.63
2023-03-05T18:43:54.677Z,101225.91
2023-03-05T18:46:21.220Z,101233.63
2023-03-05T18:48:48.104Z,101223.25
2023-03-05T18:51:17.338Z,101224.19
2023-03-05T18:53:44.008Z,101220.06
2023-03-05T18:56:10.891Z,101217.53
2023-03-05T18:58:37.561Z,101215.88
2023-03-05T19:01:04.532Z,101217.56
2023-03-05T19:03:30.975Z,101205.50
2023-03-05T19:05:57.405Z,101206.25
2023-03-05T19:08:24.109Z,101201.97
2023-03-05T19:10:50.554Z,101199.41
2023-03-05T19:13:35.374Z,101197.56
2023-03-05T19:16:11.270Z,101193.22
2023-03-05T19:18:43.880Z,101187.31
2023-03-05T19:21:10.409Z,101192.53
2023-03-05T19:23:36.933Z,101185.84
2023-03-05T19:26:03.570Z,101180.91
2023-03-05T19:28:30.257Z,101182.66
2023-03-05T19:30:57.087Z,101168.16
2023-03-05T19:33:24.975Z,101170.72
2023-03-05T19:35:51.670Z,101167.22
2023-03-05T19:38:18.171Z,101164.59
2023-03-05T19:40:44.600Z,101164.59
2023-03-05T19:43:11.006Z,101168.03
2023-03-05T19:45:37.458Z,101163.91
2023-03-05T19:48:03.993Z,101154.53
2023-03-05T19:50:31.762Z,101150.13
2023-03-05T19:52:59.276Z,101146.91
2023-03-05T19:55:25.749Z,101151.16
2023-03-05T19:57:52.206Z,101146.00
2023-03-05T20:00:19.311Z,101147.78
2023-03-05T20:02:45.739Z,101148.72
2023-03-05T20:05:12.165Z,101140.97
2023-03-05T20:07:38.591Z,101137.59
2023-03-05T20:10:05.464Z,101142.72
2023-03-05T20:12:31.888Z,101137.59
2023-03-05T20:14:58.361Z,101142.91
2023-03-05T20:17:24.820Z,101131.78
2023-03-05T20:19:51.297Z,101136.94
2023-03-05T20:22:18.044Z,101136.97
2023-03-05T20:24:44.506Z,101133.59
2023-03-05T20:27:10.935Z,101131.97
2023-03-05T20:29:37.395Z,101127.78
2023-03-05T20:32:04.068Z,101128.75
2023-03-05T20:34:31.251Z,101129.56
2023-03-05T20:36:58.347Z,101129.66
2023-03-05T20:39:24.890Z,101129.66
2023-03-05T20:41:51.419Z,101121.06
2023-03-05T20:44:17.851Z,101124.41
2023-03-05T20:47:02.479Z,101111.56
2023-03-05T20:49:29.044Z,101115.00
2023-03-05T20:51:55.439Z,101118.31
2023-03-05T20:54:22.219Z,101110.59
2023-03-05T20:56:48.714Z,101110.63
2023-03-05T20:59:16.765Z,101111.50
2023-03-05T21:01:43.339Z,101112.38
2023-03-05T21:04:09.806Z,101102.88
2023-03-05T21:06:37.023Z,101094.34
2023-03-05T21:09:03.797Z,101097.91
2023-03-05T21:11:30.621Z,101096.22
2023-03-05T21:13:57.078Z,101094.47
2023-03-05T21:16:25.810Z,101089.28
2023-03-05T21:18:52.815Z,101091.00
2023-03-05T21:21:20.201Z,101083.28
2023-03-05T21:23:47.213Z,101086.63
2023-03-05T21:26:13.948Z,101074.53
2023-03-05T21:28:40.948Z,101071.22
2023-03-05T21:31:10.680Z,101078.13
2023-03-05T21:33:37.849Z,101066.13
2023-03-05T21:36:05.056Z,101060.09
2023-03-05T21:38:33.904Z,101059.22
2023-03-05T21:41:01.459Z,101060.16
2023-03-05T21:43:31.096Z,101059.41
2023-03-05T21:45:59.834Z,101057.81
2023-03-05T21:48:26.639Z,101063.88
2023-03-05T21:50:54.751Z,101050.25
2023-03-05T21:53:21.730Z,101050.38
2023-03-05T21:56:08.629Z,101048.66
2023-03-05T21:58:35.337Z,101049.44
2023-03-05T22:01:02.351Z,101044.41
2023-03-05T22:03:29.611Z,101045.31
2023-03-05T22:05:56.876Z,101040.19
2023-03-05T22:08:23.858Z,101037.72
2023-03-05T22:10:50.723Z,101036.00
2023-03-05T22:13:17.856Z,101027.44
2023-03-05T22:15:53.511Z,101030.84
2023-03-05T22:18:23.049Z,101029.22
2023-03-05T22:20:50.215Z,101017.34
2023-03-05T22:23:17.774Z,101013.97
2023-03-05T22:25:44.678Z,101014.06
2023-03-05T22:28:12.823Z,101012.31
2023-03-05T22:30:44.083Z,101007.16
2023-03-05T22:33:11.107Z,101012.34
2023-03-05T22:35:40.032Z,100998.66
2023-03-05T22:38:07.509Z,100996.91
2023-03-05T22:40:34.174Z,100993.41
2023-03-05T22:43:00.636Z,100984.84
2023-03-05T22:45:28.574Z,100984.81
2023-03-05T22:47:55.073Z,100983.94
2023-03-05T22:50:21.612Z,100979.59
2023-03-05T22:52:48.078Z,100979.53
2023-03-05T22:55:16.026Z,100977.75
2023-03-05T22:57:43.682Z,100975.22
2023-03-05T23:00:17.495Z,100965.91
2023-03-05T23:02:44.787Z,100964.25
2023-03-05T23:05:12.095Z,100970.25
2023-03-05T23:07:40.994Z,100971.19
2023-03-05T23:10:11.983Z,100969.56
2023-03-05T23:12:43.915Z,100964.47
2023-03-05T23:15:13.828Z,100957.69
2023-03-05T23:17:40.855Z,100956.81
2023-03-05T23:20:10.137Z,100959.47
2023-03-05T23:22:38.116Z,100952.66
2023-03-05T23:25:05.019Z,100953.56
2023-03-05T23:27:31.490Z,100950.25
2023-03-05T23:30:12.164Z,100947.69
2023-03-05T23:32:38.552Z,100938.31
2023-03-05T23:35:05.531Z,100941.84
2023-03-05T23:37:32.022Z,100931.69
2023-03-05T23:39:58.666Z,100938.75
2023-03-05T23:42:25.084Z,100928.75
2023-03-05T23:44:54.247Z,100927.31
2023-03-05T23:47:20.771Z,100932.72
2023-03-05T23:49:47.187Z,100931.09
2023-03-05T23:52:13.587Z,100922.66
2023-03-05T23:54:40.135Z,100932.25
2023-03-05T23:57:06.577Z,100927.25
2023-03-05T23:59:33.082Z,100924.72
